KBMG/BMG METAR and TAF weather

Enter ICAO airport designator
Station Type Date Time Source
KBMG METAR 2022/05/24 11:53 UTC NOAA

KBMG 241153Z 05004KT 10SM CLR 13/10 A3018 RMK AO2 SLP217 T01280100 10128 20106 53014


Station Type Date Time Source
KBMG Decoded METAR 2022/05/24 11:53 UTC NOAA

MONROE COUNTY AIRPORT, IN, United States (KBMG) 39-09N 086-37W 257M
May 24, 2022 - 07:53 AM EDT / 2022.05.24 1153 UTC
Wind: from the NE (050 degrees) at 5 MPH (4 KT):0
Visibility: 10 mile(s):0
Sky conditions: clear
Temperature: 55.0 F (12.8 C)
Dew Point: 50.0 F (10.0 C)
Relative Humidity: 83%
Pressure (altimeter): 30.18 in. Hg (1022 hPa)
Pressure tendency: 0.04 inches (1.4 hPa) higher than three hours ago
ob: KBMG 241153Z 05004KT 10SM CLR 13/10 A3018 RMK AO2 SLP217 T01280100 10128 20106 53014
cycle: 12

Station Type Date Time Source
KBMG TAF 2022/05/24 12:22 UTC NOAA

TAF KBMG 241120Z 2412/2512 06004KT P6SM SKC
FM251000 13009KT P6SM -RA SCT010 OVC035
AMD LTD TO CLD VIS AND WIND TIL 241300

Example: see airport list